Time;durP1;ratioP1;P1;durP2;ratioP2;P2;SDS_P1;SDS_P2;PMS_P1;PMS_P2;Temp;Humidity;BMP_temperature;BMP_pressure;BME280_temperature;BME280_humidity;BME280_pressure;Samples;Min_cycle;Max_cycle;Signal;HPM_P1;HPM_P2
2021/01/17 00:02:12;;;;;;;22.95;15.60;;;-0.10;99.90;;;;;;5051863;28;20205;-90
2021/01/17 00:04:38;;;;;;;21.50;14.88;;;-0.10;99.90;;;;;;5051290;28;20233;-90
2021/01/17 00:07:05;;;;;;;18.88;14.80;;;-0.10;99.90;;;;;;5051371;28;20205;-89
2021/01/17 00:09:31;;;;;;;22.63;15.48;;;-0.10;99.90;;;;;;5051286;28;20287;-91
2021/01/17 00:11:57;;;;;;;26.00;17.67;;;-0.10;99.90;;;;;;5050191;28;20191;-89
2021/01/17 00:14:23;;;;;;;23.70;16.42;;;-0.10;99.90;;;;;;5051293;28;20248;-90
2021/01/17 00:16:50;;;;;;;24.60;16.58;;;-0.10;99.90;;;;;;5051453;28;20205;-91
2021/01/17 00:19:17;;;;;;;23.70;16.38;;;-0.10;99.90;;;;;;5051514;28;20632;-90
2021/01/17 00:21:44;;;;;;;30.27;17.95;;;-0.10;99.90;;;;;;5051595;28;20198;-90
2021/01/17 00:24:10;;;;;;;23.45;16.15;;;-0.10;99.90;;;;;;5050799;28;20225;-90
2021/01/17 00:26:37;;;;;;;24.77;15.90;;;-0.20;99.90;;;;;;5050996;28;20202;-90
2021/01/17 00:29:03;;;;;;;21.17;15.05;;;-0.20;99.90;;;;;;5051573;28;20214;-90
2021/01/17 00:31:34;;;;;;;26.52;18.20;;;-0.20;99.90;;;;;;5051453;28;20205;-90
2021/01/17 00:34:01;;;;;;;23.10;17.23;;;-0.20;99.90;;;;;;5051452;28;20226;-90
2021/01/17 00:36:36;;;;;;;29.77;18.63;;;-0.20;99.90;;;;;;5050826;28;20194;-90
2021/01/17 00:39:03;;;;;;;23.25;15.55;;;-0.20;99.90;;;;;;5052066;28;20255;-90
2021/01/17 00:41:30;;;;;;;26.33;18.00;;;-0.20;99.90;;;;;;5054086;28;20277;-90
2021/01/17 00:43:56;;;;;;;29.55;18.30;;;-0.20;99.90;;;;;;5064666;28;20214;-89
2021/01/17 00:46:22;;;;;;;26.00;17.40;;;-0.20;99.90;;;;;;5052852;28;20248;-90
2021/01/17 00:48:48;;;;;;;26.15;17.95;;;-0.20;99.90;;;;;;5051103;28;20606;-92
2021/01/17 00:51:15;;;;;;;26.27;17.38;;;-0.10;99.90;;;;;;5051213;28;20224;-89
2021/01/17 00:53:42;;;;;;;26.42;18.13;;;-0.10;99.90;;;;;;5050666;28;20217;-90
2021/01/17 00:56:08;;;;;;;25.42;17.17;;;-0.20;99.90;;;;;;5050415;28;20202;-91
2021/01/17 00:58:34;;;;;;;22.50;16.40;;;-0.20;99.90;;;;;;5050979;28;20197;-90
2021/01/17 01:01:00;;;;;;;30.95;18.40;;;-0.20;99.90;;;;;;5050834;28;20744;-90
2021/01/17 01:03:26;;;;;;;23.65;17.15;;;-0.20;99.90;;;;;;5050958;28;20205;-90
2021/01/17 01:05:53;;;;;;;26.05;17.88;;;-0.20;99.90;;;;;;5050303;28;20204;-89
2021/01/17 01:08:20;;;;;;;25.67;17.33;;;-0.20;99.90;;;;;;5050545;28;20221;-90
2021/01/17 01:10:46;;;;;;;25.85;18.13;;;-0.10;99.90;;;;;;5049235;28;20194;-89
2021/01/17 01:13:12;;;;;;;24.77;17.20;;;-0.20;99.90;;;;;;5050481;28;20862;-89
2021/01/17 01:15:38;;;;;;;27.42;18.27;;;-0.30;99.90;;;;;;5050563;28;20205;-90
2021/01/17 01:18:05;;;;;;;30.48;18.80;;;-0.30;99.90;;;;;;5050665;28;20202;-91
2021/01/17 01:20:31;;;;;;;27.58;17.52;;;-0.20;99.90;;;;;;5050913;28;20205;-90
2021/01/17 01:22:57;;;;;;;25.63;17.95;;;-0.20;99.90;;;;;;5050646;28;20201;-91
2021/01/17 01:25:24;;;;;;;26.15;18.35;;;-0.20;99.90;;;;;;5049994;28;20232;-91
2021/01/17 01:27:50;;;;;;;27.70;19.60;;;-0.20;99.90;;;;;;5050516;28;20210;-90
2021/01/17 01:30:17;;;;;;;24.67;17.90;;;-0.30;99.90;;;;;;5050494;28;20662;-90
2021/01/17 01:32:43;;;;;;;26.63;19.77;;;-0.20;99.90;;;;;;5050691;28;20189;-89
2021/01/17 01:35:10;;;;;;;27.02;19.20;;;-0.30;99.90;;;;;;5050194;28;20221;-91
2021/01/17 01:37:37;;;;;;;28.15;18.27;;;-0.30;99.90;;;;;;5050988;28;20717;-90
2021/01/17 01:40:05;;;;;;;28.88;19.73;;;-0.30;99.90;;;;;;5050480;28;20198;-89
2021/01/17 01:42:32;;;;;;;29.80;19.38;;;-0.30;99.90;;;;;;5050496;28;20198;-89
2021/01/17 01:44:58;;;;;;;30.35;20.42;;;-0.30;99.90;;;;;;5050272;28;20332;-89
2021/01/17 01:47:27;;;;;;;34.55;21.63;;;-0.20;99.90;;;;;;5050611;28;20682;-89
2021/01/17 01:49:54;;;;;;;27.55;18.80;;;-0.20;99.90;;;;;;5050384;28;20214;-90
2021/01/17 01:52:20;;;;;;;27.70;19.40;;;-0.20;99.90;;;;;;5050695;28;20198;-90
2021/01/17 01:54:47;;;;;;;32.63;20.88;;;-0.20;99.90;;;;;;5050299;28;20287;-91
2021/01/17 01:57:13;;;;;;;29.83;20.17;;;-0.20;99.90;;;;;;5050514;28;20194;-90
2021/01/17 01:59:40;;;;;;;28.52;19.40;;;-0.10;99.90;;;;;;5050674;28;20843;-90
2021/01/17 02:02:08;;;;;;;29.73;20.58;;;-0.10;99.90;;;;;;5050686;28;20205;-90
2021/01/17 02:04:35;;;;;;;28.17;19.08;;;-0.10;99.90;;;;;;5050169;28;20233;-90
2021/01/17 02:07:25;;;;;;;24.80;17.10;;;-0.10;99.90;;;;;;5050488;28;20206;-90
2021/01/17 02:09:51;;;;;;;30.35;20.98;;;-0.20;99.90;;;;;;5050224;28;20218;-89
2021/01/17 02:12:26;;;;;;;32.10;19.20;;;-0.20;99.90;;;;;;5050446;28;20308;-90
2021/01/17 02:15:01;;;;;;;28.73;19.00;;;-0.20;99.90;;;;;;5049180;28;20790;-90
2021/01/17 02:17:30;;;;;;;30.52;19.98;;;-0.20;99.90;;;;;;5050335;28;20280;-89
2021/01/17 02:20:10;;;;;;;31.88;20.45;;;-0.20;99.90;;;;;;5053848;28;20213;-90
2021/01/17 02:22:43;;;;;;;32.13;19.45;;;-0.20;99.90;;;;;;5053832;28;20667;-90
2021/01/17 02:25:12;;;;;;;25.67;18.13;;;-0.20;99.90;;;;;;5053840;28;20248;-90
2021/01/17 02:27:39;;;;;;;30.15;19.25;;;-0.10;99.90;;;;;;5054074;28;20225;-90
2021/01/17 02:30:08;;;;;;;29.27;19.88;;;-0.10;99.90;;;;;;5053572;28;20233;-90
2021/01/17 02:32:38;;;;;;;30.00;19.10;;;-0.20;99.90;;;;;;5053154;28;20202;-90
2021/01/17 02:35:05;;;;;;;25.42;17.83;;;-0.20;99.90;;;;;;5053429;28;20229;-90
2021/01/17 02:37:39;;;;;;;31.17;19.98;;;-0.20;99.90;;;;;;5053792;28;20209;-91
2021/01/17 02:40:07;;;;;;;30.20;20.45;;;-0.20;99.90;;;;;;5053697;28;20209;-90
2021/01/17 02:42:37;;;;;;;30.73;20.73;;;-0.20;99.90;;;;;;5053648;28;20206;-89
2021/01/17 02:45:05;;;;;;;27.75;19.60;;;-0.20;99.90;;;;;;5053046;28;20570;-89
2021/01/17 02:47:31;;;;;;;33.05;21.42;;;-0.10;99.90;;;;;;5053373;28;20214;-90
2021/01/17 02:49:59;;;;;;;29.33;20.30;;;-0.10;99.90;;;;;;5053182;28;20226;-89
2021/01/17 02:52:35;;;;;;;31.92;22.35;;;-0.10;99.90;;;;;;5053605;28;20292;-89
2021/01/17 02:55:02;;;;;;;30.58;20.77;;;0.00;99.90;;;;;;5054005;28;20690;-90
2021/01/17 02:57:32;;;;;;;29.85;19.65;;;0.00;99.90;;;;;;5056130;28;20247;-90
2021/01/17 03:00:06;;;;;;;31.42;21.05;;;0.00;99.90;;;;;;5061612;28;20224;-91
2021/01/17 03:02:35;;;;;;;32.65;20.65;;;0.00;99.90;;;;;;5053052;28;20201;-90
2021/01/17 03:05:04;;;;;;;34.60;21.65;;;0.00;99.90;;;;;;5052711;28;20304;-90
2021/01/17 03:07:33;;;;;;;31.75;19.90;;;0.00;99.90;;;;;;5053101;28;20198;-90
2021/01/17 03:10:01;;;;;;;31.40;21.60;;;-0.10;99.90;;;;;;5052985;28;20222;-90
2021/01/17 03:12:28;;;;;;;32.58;21.45;;;0.00;99.90;;;;;;5053130;28;20237;-90
2021/01/17 03:14:58;;;;;;;31.95;19.98;;;0.00;99.90;;;;;;5052516;28;20218;-91
2021/01/17 03:17:25;;;;;;;30.42;21.08;;;0.00;99.90;;;;;;5053007;28;20663;-90
2021/01/17 03:19:51;;;;;;;28.70;21.45;;;-0.10;99.90;;;;;;5052181;28;20202;-90
2021/01/17 03:22:17;;;;;;;31.10;23.02;;;-0.10;99.90;;;;;;5052734;28;20201;-90
2021/01/17 03:24:44;;;;;;;35.05;21.98;;;-0.10;99.90;;;;;;5052507;28;20737;-90
2021/01/17 03:27:10;;;;;;;30.52;20.80;;;0.00;99.90;;;;;;5052726;28;20289;-90
2021/01/17 03:29:36;;;;;;;36.65;23.42;;;0.00;99.90;;;;;;5052505;28;20225;-90
2021/01/17 03:32:02;;;;;;;30.00;20.35;;;0.00;99.90;;;;;;5052445;28;20198;-90
2021/01/17 03:34:29;;;;;;;37.33;23.50;;;-0.10;99.90;;;;;;5052160;28;20222;-90
2021/01/17 03:36:55;;;;;;;32.97;23.67;;;-0.10;99.90;;;;;;5052250;28;20229;-91
2021/01/17 03:39:22;;;;;;;34.22;22.05;;;-0.10;99.90;;;;;;5052555;28;20201;-90
2021/01/17 03:41:48;;;;;;;31.30;21.52;;;-0.10;99.90;;;;;;5052564;28;20198;-91
2021/01/17 03:44:14;;;;;;;30.60;21.75;;;-0.20;99.90;;;;;;5052252;28;20245;-89
2021/01/17 03:46:40;;;;;;;33.85;23.33;;;-0.20;99.90;;;;;;5051849;28;20206;-90
2021/01/17 03:49:06;;;;;;;32.85;22.20;;;-0.10;99.90;;;;;;5052299;28;20230;-90
2021/01/17 03:51:33;;;;;;;33.75;22.17;;;-0.10;99.90;;;;;;5051975;28;20198;-90
2021/01/17 03:54:00;;;;;;;32.40;21.20;;;-0.10;99.90;;;;;;5052035;28;20855;-91
2021/01/17 03:56:26;;;;;;;33.55;23.83;;;-0.10;99.90;;;;;;5051901;28;20190;-89
2021/01/17 03:58:52;;;;;;;34.03;22.30;;;-0.10;99.90;;;;;;5051466;28;20194;-90
2021/01/17 04:01:18;;;;;;;35.33;23.67;;;-0.20;99.90;;;;;;5052017;28;20197;-90
2021/01/17 04:03:45;;;;;;;35.55;22.13;;;-0.20;99.90;;;;;;5051888;28;20253;-90
2021/01/17 04:06:11;;;;;;;28.33;22.13;;;-0.20;99.90;;;;;;5051546;28;20202;-91
2021/01/17 04:08:38;;;;;;;36.65;23.23;;;-0.10;99.90;;;;;;5052082;28;20218;-90
2021/01/17 04:11:04;;;;;;;28.35;19.60;;;-0.10;99.90;;;;;;5052197;28;20202;-89
2021/01/17 04:13:30;;;;;;;31.85;19.88;;;-0.10;99.90;;;;;;5051514;28;20693;-90
2021/01/17 04:15:56;;;;;;;32.53;22.05;;;-0.20;99.90;;;;;;5051358;28;20198;-89
2021/01/17 04:18:23;;;;;;;33.03;20.48;;;-0.10;99.90;;;;;;5051393;28;20202;-90
2021/01/17 04:20:49;;;;;;;33.75;22.65;;;-0.20;99.90;;;;;;5051142;28;20202;-90
2021/01/17 04:23:15;;;;;;;33.05;21.60;;;-0.20;99.90;;;;;;5051306;28;20194;-90
2021/01/17 04:25:42;;;;;;;29.65;20.70;;;-0.20;99.90;;;;;;5051219;28;20202;-89
2021/01/17 04:28:11;;;;;;;37.20;22.42;;;-0.20;99.90;;;;;;5051242;28;20198;-90
2021/01/17 04:30:38;;;;;;;40.97;22.77;;;-0.20;99.90;;;;;;5051679;28;20232;-90
2021/01/17 04:33:04;;;;;;;39.90;22.48;;;-0.20;99.90;;;;;;5051629;28;20206;-88
2021/01/17 04:35:31;;;;;;;30.70;20.48;;;-0.20;99.90;;;;;;5051242;28;20229;-90
2021/01/17 04:37:58;;;;;;;35.50;21.65;;;-0.20;99.90;;;;;;5049775;28;20198;-89
2021/01/17 04:40:24;;;;;;;32.67;20.48;;;-0.20;99.90;;;;;;5050055;28;20395;-89
2021/01/17 04:43:03;;;;;;;36.28;22.08;;;-0.10;99.90;;;;;;5050476;28;20193;-88
2021/01/17 04:45:30;;;;;;;34.58;22.52;;;-0.10;99.90;;;;;;5051209;28;20221;-89
2021/01/17 04:47:58;;;;;;;30.92;20.23;;;-0.20;99.90;;;;;;5051316;28;20701;-89
2021/01/17 04:50:30;;;;;;;39.95;22.50;;;-0.20;99.90;;;;;;5051124;28;20230;-89
2021/01/17 04:53:00;;;;;;;33.90;22.30;;;-0.10;99.90;;;;;;5050870;28;20198;-89
2021/01/17 04:55:27;;;;;;;41.13;25.05;;;-0.10;99.90;;;;;;5051093;28;20279;-89
2021/01/17 04:58:08;;;;;;;33.88;22.33;;;-0.10;99.90;;;;;;5051086;28;20224;-91
2021/01/17 05:00:39;;;;;;;32.63;21.02;;;-0.10;99.90;;;;;;5051532;28;20217;-89
2021/01/17 05:03:18;;;;;;;34.35;22.65;;;-0.20;99.90;;;;;;5051283;28;20666;-90
2021/01/17 05:05:52;;;;;;;31.98;21.33;;;-0.10;99.90;;;;;;5050503;28;20252;-90
2021/01/17 05:08:32;;;;;;;37.60;22.75;;;-0.10;99.90;;;;;;5051242;28;20209;-90
2021/01/17 05:11:07;;;;;;;32.97;21.02;;;-0.20;99.90;;;;;;5051061;28;20202;-88
2021/01/17 05:13:36;;;;;;;40.45;23.70;;;-0.20;99.90;;;;;;5058844;28;20233;-90
2021/01/17 05:16:07;;;;;;;33.15;21.48;;;-0.20;99.90;;;;;;5053057;28;20233;-89
2021/01/17 05:18:34;;;;;;;37.88;23.77;;;-0.20;99.90;;;;;;5050595;28;20198;-89
2021/01/17 05:21:03;;;;;;;35.72;21.63;;;-0.10;99.90;;;;;;5050324;28;20205;-88
2021/01/17 05:23:33;;;;;;;36.78;23.77;;;-0.10;99.90;;;;;;5050778;28;20198;-89
2021/01/17 05:26:00;;;;;;;35.53;22.67;;;-0.20;99.90;;;;;;5050594;28;20198;-89
2021/01/17 05:28:28;;;;;;;35.47;24.23;;;-0.10;99.90;;;;;;5050732;28;20244;-89
2021/01/17 05:30:56;;;;;;;35.70;21.90;;;-0.10;99.90;;;;;;5050848;28;20213;-89
2021/01/17 05:33:27;;;;;;;36.30;22.77;;;-0.10;99.90;;;;;;5050527;28;20284;-89
2021/01/17 05:35:54;;;;;;;38.38;23.63;;;-0.10;99.90;;;;;;5050268;28;20290;-89
2021/01/17 05:38:20;;;;;;;32.97;23.63;;;0.00;99.90;;;;;;5050817;28;20209;-89
2021/01/17 05:40:46;;;;;;;34.58;23.02;;;0.00;99.90;;;;;;5050596;28;20212;-90
2021/01/17 05:43:12;;;;;;;39.10;24.52;;;0.00;99.90;;;;;;5050630;28;20201;-89
2021/01/17 05:45:39;;;;;;;34.88;22.65;;;0.00;99.90;;;;;;5050101;28;20312;-89
2021/01/17 05:48:06;;;;;;;32.45;23.30;;;0.10;99.90;;;;;;5050333;28;20205;-90
2021/01/17 05:50:34;;;;;;;36.83;22.65;;;0.10;99.90;;;;;;5050766;28;20244;-89
2021/01/17 05:53:02;;;;;;;38.00;22.13;;;0.10;99.90;;;;;;5051877;28;20202;-90
2021/01/17 05:55:30;;;;;;;32.42;22.38;;;0.10;99.90;;;;;;5055412;28;20238;-90
2021/01/17 05:58:20;;;;;;;35.75;23.20;;;0.10;99.90;;;;;;5055497;28;20677;-90
2021/01/17 06:00:46;;;;;;;35.65;23.38;;;0.10;99.90;;;;;;5054207;28;20273;-90
2021/01/17 06:03:17;;;;;;;38.83;22.80;;;0.00;99.90;;;;;;5054246;28;20201;-90
2021/01/17 06:05:47;;;;;;;37.47;23.83;;;0.10;99.90;;;;;;5054023;28;20209;-89
2021/01/17 06:08:18;;;;;;;36.17;24.85;;;0.10;99.90;;;;;;5054181;28;20679;-89
2021/01/17 06:10:46;;;;;;;41.25;24.67;;;0.10;99.90;;;;;;5054226;28;20209;-91
2021/01/17 06:13:20;;;;;;;38.25;24.45;;;0.10;99.90;;;;;;5053901;28;20599;-90
2021/01/17 06:15:46;;;;;;;39.53;26.13;;;0.20;99.90;;;;;;5053839;28;20285;-89
2021/01/17 06:18:18;;;;;;;37.00;24.42;;;0.10;99.90;;;;;;5054095;28;20209;-89
2021/01/17 06:20:45;;;;;;;37.85;25.45;;;0.10;99.90;;;;;;5053965;28;20733;-90
2021/01/17 06:23:12;;;;;;;42.00;24.65;;;0.20;99.90;;;;;;5054088;28;20701;-90
2021/01/17 06:25:39;;;;;;;40.70;25.08;;;0.10;99.90;;;;;;5053353;28;20202;-90
2021/01/17 06:28:10;;;;;;;36.67;23.95;;;0.00;99.90;;;;;;5053225;28;20237;-90
2021/01/17 06:30:36;;;;;;;38.25;26.77;;;0.10;99.90;;;;;;5053495;28;20222;-89
2021/01/17 06:33:04;;;;;;;40.70;24.27;;;0.00;99.90;;;;;;5053644;28;20198;-90
2021/01/17 06:35:32;;;;;;;36.83;25.45;;;0.00;99.90;;;;;;5053264;28;20222;-90
2021/01/17 06:38:13;;;;;;;41.63;26.45;;;0.10;99.90;;;;;;5053546;28;20232;-89
2021/01/17 06:40:42;;;;;;;43.95;25.92;;;0.10;99.90;;;;;;5053885;28;20213;-90
2021/01/17 06:43:10;;;;;;;38.80;26.20;;;0.10;99.90;;;;;;5053928;28;20761;-90
2021/01/17 06:45:39;;;;;;;39.53;24.95;;;0.10;99.90;;;;;;5053672;28;20666;-90
2021/01/17 06:48:06;;;;;;;40.85;24.58;;;0.10;99.90;;;;;;5053256;28;20743;-89
2021/01/17 06:50:33;;;;;;;44.40;27.10;;;0.10;99.90;;;;;;5053648;28;20226;-90
2021/01/17 06:52:59;;;;;;;39.78;26.90;;;0.10;99.90;;;;;;5053303;28;20202;-90
2021/01/17 06:55:26;;;;;;;36.60;24.33;;;0.10;99.90;;;;;;5053198;28;20229;-90
2021/01/17 06:57:53;;;;;;;37.78;24.65;;;0.00;99.90;;;;;;5053474;28;20209;-90
2021/01/17 07:00:20;;;;;;;43.45;25.92;;;0.00;99.90;;;;;;5053458;28;20689;-90
2021/01/17 07:02:54;;;;;;;44.63;27.17;;;0.00;99.90;;;;;;5053518;28;20244;-90
2021/01/17 07:05:42;;;;;;;41.40;25.77;;;0.00;99.90;;;;;;5052862;28;20230;-90
2021/01/17 07:08:41;;;;;;;40.92;26.13;;;0.10;99.90;;;;;;5053703;28;20245;-89
2021/01/17 07:11:18;;;;;;;37.22;24.45;;;0.00;99.90;;;;;;5053252;28;20621;-90
2021/01/17 07:13:49;;;;;;;40.85;24.35;;;0.00;99.90;;;;;;5053912;28;20305;-90
2021/01/17 07:16:31;;;;;;;39.58;27.00;;;0.00;99.90;;;;;;5053224;28;20255;-89
2021/01/17 07:19:04;;;;;;;40.83;25.83;;;0.10;99.90;;;;;;5053521;28;20255;-90
2021/01/17 07:21:41;;;;;;;41.25;26.27;;;0.00;99.90;;;;;;5054237;28;20202;-91
2021/01/17 07:24:09;;;;;;;44.83;27.90;;;0.00;99.90;;;;;;5052993;28;20726;-90
2021/01/17 07:27:13;;;;;;;43.38;26.10;;;0.10;99.90;;;;;;5060138;28;20237;-89
2021/01/17 07:29:43;;;;;;;37.25;26.30;;;0.10;99.90;;;;;;5054614;28;20225;-90
2021/01/17 07:32:31;;;;;;;39.15;24.58;;;0.20;99.90;;;;;;5042339;28;21558;-90
2021/01/17 07:35:06;;;;;;;39.35;26.90;;;0.20;99.90;;;;;;5042542;28;20249;-90
2021/01/17 07:37:34;;;;;;;41.92;27.40;;;0.20;99.90;;;;;;5042484;28;20194;-91
2021/01/17 07:40:07;;;;;;;40.42;25.95;;;0.30;99.90;;;;;;5041233;28;20674;-90
2021/01/17 07:42:35;;;;;;;39.10;25.05;;;0.30;99.90;;;;;;5044994;28;20572;-90
2021/01/17 07:45:15;;;;;;;38.03;26.17;;;0.30;99.90;;;;;;5042145;28;20222;-90
2021/01/17 07:47:43;;;;;;;36.78;25.33;;;0.30;99.90;;;;;;5042480;28;20198;-90
2021/01/17 07:50:10;;;;;;;43.33;26.55;;;0.20;99.90;;;;;;5046883;28;20222;-90
2021/01/17 07:52:47;;;;;;;43.90;27.20;;;0.20;99.90;;;;;;5041180;28;20679;-89
2021/01/17 07:55:15;;;;;;;39.30;24.67;;;0.30;99.90;;;;;;5041913;28;20223;-90
2021/01/17 07:57:45;;;;;;;45.13;27.15;;;0.30;99.90;;;;;;5042750;28;20194;-88
2021/01/17 08:00:14;;;;;;;38.00;24.15;;;0.40;99.90;;;;;;5043775;28;20634;-89
2021/01/17 08:02:41;;;;;;;41.05;26.10;;;0.40;99.90;;;;;;5040101;28;20198;-85
2021/01/17 08:05:07;;;;;;;38.88;26.02;;;0.40;99.90;;;;;;5040185;28;20598;-84
2021/01/17 08:07:34;;;;;;;42.00;25.73;;;0.40;99.90;;;;;;5046328;28;20202;-86
2021/01/17 08:10:03;;;;;;;39.90;25.58;;;0.40;99.90;;;;;;5051413;28;20269;-89
2021/01/17 08:12:39;;;;;;;42.13;27.38;;;0.40;99.90;;;;;;5052516;28;20194;-91
2021/01/17 08:15:17;;;;;;;40.08;26.05;;;0.40;99.90;;;;;;5052009;28;20310;-91
2021/01/17 08:17:45;;;;;;;44.05;26.13;;;0.40;99.90;;;;;;5052386;28;20204;-91
2021/01/17 08:20:27;;;;;;;38.50;26.35;;;0.40;99.90;;;;;;5052661;28;20719;-90
2021/01/17 08:23:06;;;;;;;40.22;28.25;;;0.50;99.90;;;;;;5052386;28;20201;-91
2021/01/17 08:25:55;;;;;;;39.97;27.27;;;0.50;99.90;;;;;;5051939;28;20279;-91
2021/01/17 08:28:38;;;;;;;37.10;25.83;;;0.60;99.90;;;;;;5046242;28;20194;-92
2021/01/17 08:31:39;;;;;;;39.92;25.63;;;0.60;99.90;;;;;;5038476;28;20205;-91
2021/01/17 08:34:13;;;;;;;39.28;27.35;;;0.70;99.90;;;;;;5043782;28;20271;-90
2021/01/17 08:36:41;;;;;;;40.13;26.75;;;0.70;99.90;;;;;;5040589;28;20201;-90
2021/01/17 08:39:07;;;;;;;41.63;25.90;;;0.70;99.90;;;;;;5036873;28;20230;-91
2021/01/17 08:41:35;;;;;;;41.28;27.33;;;0.70;99.90;;;;;;5038549;28;20198;-90
2021/01/17 08:44:02;;;;;;;46.78;28.95;;;0.80;99.90;;;;;;5039810;28;20230;-89
2021/01/17 08:46:36;;;;;;;46.30;27.80;;;0.80;99.90;;;;;;5033742;28;20203;-91
2021/01/17 08:49:03;;;;;;;41.40;28.58;;;0.90;99.90;;;;;;5034560;28;20226;-90
2021/01/17 08:51:29;;;;;;;41.40;26.40;;;1.00;99.90;;;;;;5043456;28;20217;-90
2021/01/17 08:53:56;;;;;;;38.85;28.33;;;1.00;99.90;;;;;;5043348;28;20216;-90
2021/01/17 08:56:24;;;;;;;38.60;27.15;;;1.00;99.90;;;;;;5041212;28;20219;-90
2021/01/17 08:58:55;;;;;;;41.08;27.05;;;1.00;99.90;;;;;;5045309;28;20540;-89
2021/01/17 09:01:23;;;;;;;39.13;24.50;;;1.00;99.90;;;;;;5051890;28;20792;-90
2021/01/17 09:03:55;;;;;;;36.53;25.42;;;1.00;99.90;;;;;;5051373;28;20222;-92
2021/01/17 09:06:25;;;;;;;39.17;26.67;;;1.10;99.90;;;;;;5051985;28;20493;-89
2021/01/17 09:09:07;;;;;;;36.45;24.90;;;1.10;99.90;;;;;;5051217;28;20219;-92
2021/01/17 09:11:37;;;;;;;39.83;27.15;;;1.20;99.90;;;;;;5051596;28;20667;-90
2021/01/17 09:14:25;;;;;;;45.35;26.83;;;1.10;99.90;;;;;;5051604;28;20669;-92
2021/01/17 09:16:53;;;;;;;40.65;28.25;;;1.20;99.90;;;;;;5051311;28;20198;-90
2021/01/17 09:19:22;;;;;;;46.25;29.80;;;1.20;99.90;;;;;;5051517;28;20206;-90
2021/01/17 09:21:52;;;;;;;42.88;28.40;;;1.30;99.90;;;;;;5051073;28;20213;-90
2021/01/17 09:24:21;;;;;;;43.05;27.38;;;1.30;99.90;;;;;;5051406;28;20269;-91
2021/01/17 09:26:48;;;;;;;41.42;27.58;;;1.30;99.90;;;;;;5045229;28;20198;-90
2021/01/17 09:29:37;;;;;;;44.60;27.95;;;1.30;99.90;;;;;;5044390;28;20218;-88
2021/01/17 09:32:07;;;;;;;42.08;28.98;;;1.30;99.90;;;;;;5046127;28;20206;-89
2021/01/17 09:34:35;;;;;;;44.20;30.63;;;1.40;99.90;;;;;;5044932;28;20215;-89
2021/01/17 09:37:05;;;;;;;43.17;27.80;;;1.40;99.90;;;;;;5054983;28;20210;-90
2021/01/17 09:39:40;;;;;;;47.00;29.30;;;1.40;99.90;;;;;;5055606;28;20202;-90
2021/01/17 09:42:08;;;;;;;41.70;28.48;;;1.40;99.90;;;;;;5056670;28;20232;-90
2021/01/17 09:44:37;;;;;;;44.35;28.40;;;1.40;99.90;;;;;;5061301;28;20219;-90
2021/01/17 09:47:04;;;;;;;42.30;29.13;;;1.50;99.90;;;;;;5055424;28;20206;-89
2021/01/17 09:49:31;;;;;;;41.10;27.58;;;1.50;99.90;;;;;;5055012;28;20227;-89
2021/01/17 09:51:58;;;;;;;41.88;27.20;;;1.50;99.90;;;;;;5054194;28;20587;-90
2021/01/17 09:54:25;;;;;;;43.10;27.45;;;1.60;99.90;;;;;;5054370;28;20228;-89
2021/01/17 09:56:51;;;;;;;46.08;28.98;;;1.60;99.90;;;;;;5055020;28;20207;-89
2021/01/17 09:59:21;;;;;;;46.25;28.35;;;1.60;99.90;;;;;;5054853;28;20200;-89
2021/01/17 10:01:48;;;;;;;42.92;27.77;;;1.60;99.90;;;;;;5054872;28;20225;-89
2021/01/17 10:04:26;;;;;;;42.92;28.10;;;1.70;99.90;;;;;;5054308;28;20273;-89
2021/01/17 10:06:53;;;;;;;49.35;28.90;;;1.70;99.90;;;;;;5054693;28;20211;-89
2021/01/17 10:09:21;;;;;;;39.63;27.60;;;1.70;99.90;;;;;;5054608;28;20219;-89
2021/01/17 10:11:53;;;;;;;44.35;29.25;;;1.70;99.90;;;;;;5054484;28;20198;-92
2021/01/17 10:14:22;;;;;;;45.45;29.00;;;1.80;99.90;;;;;;5054823;28;20306;-89
2021/01/17 10:16:53;;;;;;;47.15;28.55;;;1.70;99.90;;;;;;5054331;28;20195;-89
2021/01/17 10:19:24;;;;;;;42.53;28.52;;;1.70;99.90;;;;;;5054004;28;20222;-89
2021/01/17 10:21:50;;;;;;;42.95;28.65;;;1.70;99.90;;;;;;5054670;28;20203;-89
2021/01/17 10:24:20;;;;;;;39.28;27.52;;;1.80;99.90;;;;;;5054732;28;20227;-90
2021/01/17 10:26:50;;;;;;;45.35;29.92;;;1.80;99.90;;;;;;5054851;28;20299;-88
2021/01/17 10:29:20;;;;;;;46.35;29.42;;;1.80;99.90;;;;;;5054380;28;20222;-88
2021/01/17 10:31:50;;;;;;;46.13;30.13;;;1.80;99.90;;;;;;5054299;28;20222;-90
2021/01/17 10:34:23;;;;;;;43.15;29.77;;;1.90;99.90;;;;;;5053703;28;20222;-89
2021/01/17 10:36:54;;;;;;;43.28;30.85;;;1.90;99.90;;;;;;5054075;28;20275;-90
2021/01/17 10:39:20;;;;;;;44.85;29.35;;;1.80;99.90;;;;;;5052953;28;20199;-90
2021/01/17 10:41:47;;;;;;;47.05;31.25;;;1.90;99.90;;;;;;5054071;28;20261;-89
2021/01/17 10:44:26;;;;;;;44.53;28.90;;;1.90;99.90;;;;;;5054202;28;20315;-89
2021/01/17 10:47:05;;;;;;;43.75;30.80;;;1.90;99.90;;;;;;5053296;28;20219;-90
2021/01/17 10:49:36;;;;;;;47.15;30.75;;;1.90;99.90;;;;;;5054209;28;20226;-90
2021/01/17 10:52:11;;;;;;;44.58;28.15;;;1.90;99.90;;;;;;5054142;28;20211;-88
2021/01/17 10:54:41;;;;;;;42.53;29.05;;;1.90;99.90;;;;;;5053649;28;20233;-90
2021/01/17 10:57:09;;;;;;;46.22;30.40;;;2.00;99.90;;;;;;5053408;28;20230;-90
2021/01/17 10:59:36;;;;;;;44.58;32.20;;;2.00;99.90;;;;;;5053251;28;20237;-89
2021/01/17 11:02:02;;;;;;;46.17;33.22;;;2.00;99.90;;;;;;5053758;28;20211;-90
2021/01/17 11:04:39;;;;;;;42.17;29.80;;;2.00;99.90;;;;;;5053345;28;20226;-88
2021/01/17 11:07:06;;;;;;;49.88;32.05;;;2.00;99.90;;;;;;5053577;28;20710;-89
2021/01/17 11:09:33;;;;;;;43.05;28.90;;;2.00;99.90;;;;;;5053480;28;20223;-89
2021/01/17 11:12:00;;;;;;;45.78;28.85;;;2.00;99.90;;;;;;5053396;28;20204;-88
2021/01/17 11:14:27;;;;;;;44.45;28.48;;;2.00;99.90;;;;;;5053240;28;20234;-89
2021/01/17 11:16:54;;;;;;;47.50;29.63;;;2.00;99.90;;;;;;5053265;28;20202;-90
2021/01/17 11:19:34;;;;;;;38.35;28.02;;;2.00;99.90;;;;;;5053552;28;20200;-89
2021/01/17 11:22:01;;;;;;;43.55;30.70;;;2.00;99.90;;;;;;5038945;28;20728;-89
2021/01/17 11:24:34;;;;;;;42.75;28.30;;;2.10;99.90;;;;;;5033052;28;20219;-89
2021/01/17 11:27:14;;;;;;;45.35;28.95;;;2.10;99.90;;;;;;5035315;28;20214;-89
2021/01/17 11:29:41;;;;;;;47.65;29.30;;;2.20;99.90;;;;;;5053105;28;20227;-89
2021/01/17 11:32:08;;;;;;;43.72;29.70;;;2.20;99.90;;;;;;5053373;28;20212;-89
2021/01/17 11:34:36;;;;;;;40.13;28.60;;;2.20;99.90;;;;;;5052801;28;20255;-88
2021/01/17 11:37:03;;;;;;;46.75;31.33;;;2.30;99.90;;;;;;5053098;28;20256;-88
2021/01/17 11:39:30;;;;;;;46.88;30.17;;;2.30;99.90;;;;;;5052939;28;20660;-88
2021/01/17 11:41:56;;;;;;;42.72;30.75;;;2.30;99.90;;;;;;5052871;28;20668;-87
2021/01/17 11:44:25;;;;;;;47.33;31.70;;;2.30;99.90;;;;;;5051913;28;20305;-86
2021/01/17 11:46:52;;;;;;;46.40;32.22;;;2.30;99.90;;;;;;5051909;28;20223;-88
2021/01/17 11:49:23;;;;;;;50.03;30.60;;;2.30;99.90;;;;;;5053066;28;20216;-87
2021/01/17 11:51:50;;;;;;;49.30;31.65;;;2.30;99.90;;;;;;5052839;28;20296;-88
2021/01/17 11:54:19;;;;;;;46.08;31.05;;;2.30;99.90;;;;;;5053084;28;20232;-89
2021/01/17 11:56:46;;;;;;;50.72;32.72;;;2.30;99.90;;;;;;5052719;28;20195;-88
2021/01/17 11:59:26;;;;;;;51.47;33.40;;;2.30;99.90;;;;;;5061196;28;20213;-87
2021/01/17 12:01:52;;;;;;;50.35;32.65;;;2.30;99.90;;;;;;5053095;28;20226;-89
2021/01/17 12:04:24;;;;;;;48.67;35.35;;;2.20;99.90;;;;;;5052596;28;20219;-90
2021/01/17 12:07:03;;;;;;;50.35;32.63;;;2.30;99.90;;;;;;5043521;28;20257;-87
2021/01/17 12:09:30;;;;;;;54.08;33.83;;;2.30;99.90;;;;;;5042461;28;20214;-88
2021/01/17 12:11:56;;;;;;;44.90;32.20;;;2.30;99.90;;;;;;5042929;28;20207;-88
2021/01/17 12:14:23;;;;;;;50.33;32.90;;;2.30;99.90;;;;;;5041894;28;20211;-88
2021/01/17 12:16:52;;;;;;;51.40;33.05;;;2.30;99.90;;;;;;5041641;28;20190;-87
2021/01/17 12:19:19;;;;;;;48.17;31.92;;;2.30;99.90;;;;;;5041521;28;20253;-87
2021/01/17 12:21:51;;;;;;;49.95;33.55;;;2.30;99.90;;;;;;5041226;28;20207;-88
2021/01/17 12:24:20;;;;;;;53.72;33.10;;;2.20;99.90;;;;;;5040965;28;20219;-87
2021/01/17 12:26:51;;;;;;;49.50;32.10;;;2.20;99.90;;;;;;5041558;28;20288;-85
2021/01/17 12:29:17;;;;;;;52.45;32.85;;;2.20;99.90;;;;;;5041316;28;20212;-89
2021/01/17 12:31:48;;;;;;;43.55;28.83;;;2.20;99.90;;;;;;5041190;28;20211;-88
2021/01/17 12:34:20;;;;;;;44.22;29.08;;;2.20;99.90;;;;;;5041618;28;20700;-87
2021/01/17 12:36:47;;;;;;;51.70;31.17;;;2.20;99.90;;;;;;5040922;28;20198;-88
2021/01/17 12:39:15;;;;;;;46.78;29.80;;;2.20;99.90;;;;;;5040886;28;20268;-88
2021/01/17 12:41:51;;;;;;;47.80;29.13;;;2.20;99.90;;;;;;5040881;28;20265;-87
2021/01/17 12:44:19;;;;;;;42.33;28.83;;;2.30;99.90;;;;;;5040905;28;20225;-88
2021/01/17 12:46:46;;;;;;;43.67;29.73;;;2.30;99.90;;;;;;5041148;28;20316;-88